Meadow Lake, Alaska
Current Conditions -  °F | °C
As of 6:56 AM on Friday 19 Dec 2014 (Local Time) from PAWS Reporting Station
Few Clouds Few Clouds  
Wind Chill: 26°   Ceiling: Unl
Heat Index: 32°   Visibility: 10mi
Dew Point:   Wind: 6mph
Humidity: 38%   Direction: 50°NE
Pressure: 29.17"   Gusts: NA
Location:  61.5841°N, 149.443°W
Report Text: PAWS 191556Z AUTO 05005KT 10SM FEW110 00/M13 A2917 RMK AO1
Loading
Personal Weather Stations






























Interactive Weather Map New forecast layout! Learn more

10-Day Weather Forecast

Advertisements
Track Severe Weather on mobile